Flight Track Log - Related Links

Times and Time Zones

All times are in EDT time to prevent confusion due to time zone crossing. See the JBU1329 flight status page for this flight to view local times or setup timezone preferences in your user account.

Time Position Orientation Groundspeed Altitude Reporting Facility
EDT Latitude Longitude Course Direction KTS MPH feet Rate Location/Type
Wed 10:24:24 AM 42.3500 -71.0167 262° West 165 190 500  Level KA90
Wed 10:26:42 AM 42.3225 -70.8508 103° East 242 278 5,700 2,545 Climbing Boston Center
Wed 10:27:00 AM 42.2805 -70.7459 228° Southwest  Level FlightAware Approximate
Wed 10:27:42 AM 42.3169 -70.7497 94° East 255 293 8,900  Level Boston Center
Wed 10:28:00 AM 42.2180 -70.8526 240° Southwest  Level FlightAware Approximate
Wed 10:28:42 AM 42.2353 -70.7267 168° South 218 251 11,300  Level Boston Center
Wed 10:29:00 AM 42.1824 -70.9765 262° West  Level FlightAware Approximate
Wed 10:29:42 AM 42.1908 -70.8261 239° Southwest 191 220 13,500  Level Boston Center
Wed 10:30:42 AM 42.1739 -70.9497 260° West 281 323 15,500 2,050 Climbing Boston Center
Wed 10:31:42 AM 42.1586 -71.0706 260° West 346 398 17,600 1,950 Climbing Boston Center
Wed 10:32:42 AM 42.1439 -71.2250 263° West 373 429 19,400 1,850 Climbing Boston Center
Wed 10:33:42 AM 42.1264 -71.3681 261° West 393 452 21,300 1,750 Climbing Boston Center
Wed 10:34:42 AM 42.1069 -71.5167 260° West 393 452 22,900 950 Climbing Boston Center
Wed 10:35:42 AM 42.0831 -71.6625 258° West 393 452 23,200 950 Climbing Boston Center
Wed 10:36:42 AM 42.0611 -71.8136 259° West 404 465 24,800 1,450 Climbing Boston Center
Wed 10:37:42 AM 42.0408 -71.9706 260° West 415 478 26,100 1,200 Climbing Boston Center
Wed 10:38:42 AM 41.9894 -72.1161 245° Southwest 426 490 27,200 1,050 Climbing Boston Center
Wed 10:39:42 AM 41.9231 -72.2558 237° Southwest 432 497 28,200 950 Climbing Boston Center
Wed 10:40:42 AM 41.8544 -72.3983 237° Southwest 444 511 29,100 1,000 Climbing Boston Center
Wed 10:41:42 AM 41.7856 -72.5403 237° Southwest 456 525 30,200 1,000 Climbing Boston Center
Wed 10:42:42 AM 41.7311 -72.6569 238° Southwest 461 531 31,100 900 Climbing Boston Center
Wed 10:43:42 AM 41.6494 -72.8236 237° Southwest 461 531 32,000 450 Climbing Boston Center
Wed 10:44:42 AM 41.5822 -72.9647 238° Southwest 461 531 32,000  Level Boston Center
Wed 10:45:42 AM 41.5169 -73.1056 238° Southwest 461 531 32,000  Level Boston Center
Wed 10:46:42 AM 41.4536 -73.2350 237° Southwest 456 525 32,000  Level Boston Center
Wed 10:47:42 AM 41.3858 -73.3725 237° Southwest 456 525 32,000  Level Boston Center
Wed 10:49:52 AM 41.2236 -73.6814 231° Southwest 476 548 32,000  Level New York Center
Wed 10:50:00 AM 41.3109 -73.4948 231° Southwest  Level FlightAware Approximate
Wed 10:50:53 AM 41.1453 -73.8131 232° Southwest 463 533 32,000  Level New York Center
Wed 10:51:53 AM 41.0692 -73.9417 232° Southwest 457 526 32,000  Level New York Center
Wed 10:52:51 AM 40.9883 -74.0753 231° Southwest 462 532 32,000 -712 Level New York Center
Wed 10:53:51 AM 40.9078 -74.2003 230° Southwest 462 532 30,600 -1,785 Descending New York Center
Wed 10:54:52 AM 40.8286 -74.3336 232° Southwest 462 532 28,400 -1,279 Descending New York Center
Wed 10:55:53 AM 40.7517 -74.4664 233° Southwest 462 532 28,000 -202 Descending New York Center
Wed 10:56:51 AM 40.6725 -74.5961 231° Southwest 462 532 28,000  Level New York Center
Wed 10:57:51 AM 40.5978 -74.7178 231° Southwest 461 531 28,000 -450 Level New York Center
Wed 10:58:51 AM 40.5144 -74.8411 228° Southwest 466 536 27,100 -1,289 Descending New York Center
Wed 10:59:52 AM 40.4289 -74.9617 227° Southwest 461 531 25,400 -1,736 Descending New York Center
Wed 11:00:52 AM 40.3456 -75.0764 226° Southwest 451 519 23,600 -1,785 Descending New York Center
Wed 11:01:53 AM 40.2661 -75.1911 228° Southwest 446 513 21,800 -1,785 Descending New York Center
Wed 11:02:53 AM 40.1889 -75.3031 228° Southwest 435 501 20,000 -1,436 Descending New York Center
Wed 11:03:50 AM 40.1011 -75.4194 225° Southwest 421 484 19,000 -504 Descending New York Center
Wed 11:04:52 AM 40.0328 -75.5153 227° Southwest 411 473 19,000 -246 Level New York Center
Wed 11:05:52 AM 39.9467 -75.6311 226° Southwest 411 473 18,500 -807 Descending New York Center
Wed 11:06:51 AM 39.8861 -75.7325 232° Southwest 405 466 17,400 -1,200 Descending New York Center
Wed 11:07:52 AM 39.8225 -75.8550 236° Southwest 387 445 16,100 -1,190 Descending New York Center
Wed 11:08:52 AM 39.7681 -75.9564 235° Southwest 387 445 15,000 -1,316 Descending New York Center
Wed 11:10:59 AM 39.6500 -76.2000 238° Southwest 315 362 12,000 -1,380 Descending Potomac TRACON
Wed 11:11:59 AM 39.6167 -76.2833 243° Southwest 276 318 10,700 -1,488 Descending Potomac TRACON
Wed 11:13:00 AM 39.6000 -76.3833 258° West 272 313 9,000 -1,636 Descending Potomac TRACON
Wed 11:14:00 AM 39.5667 -76.4667 243° Southwest 267 307 7,400 -1,500 Descending Potomac TRACON
Wed 11:15:00 AM 39.5000 -76.4833 191° South 277 319 6,000 -1,240 Descending Potomac TRACON
Wed 11:16:01 AM 39.4167 -76.4833 180° South 279 321 4,900 -992 Descending Potomac TRACON
Wed 11:17:01 AM 39.3500 -76.4833 180° South 275 316 4,000 -650 Descending Potomac TRACON
Wed 11:18:01 AM 39.2667 -76.4667 171° South 272 313 3,600 -500 Descending Potomac TRACON
Wed 11:19:01 AM 39.2000 -76.4667 180° South 268 308 3,000 -381 Descending Potomac TRACON
Wed 11:20:07 AM 39.1333 -76.4667 180° South 192 221 2,800 -496 Descending Potomac TRACON
Wed 11:21:02 AM 39.1000 -76.5000 218° Southwest 175 201 2,000 -873 Descending Potomac TRACON

Login

Don't have an account? Register now (free) for customized features, flight alerts, and more!